createdAt,value
2022-08-26T00:01:12.112Z,17.6
2022-08-26T00:06:54.914Z,17.5
2022-08-26T00:12:54.000Z,17.4
2022-08-26T00:18:58.172Z,17.4
2022-08-26T00:24:41.102Z,17.3
2022-08-26T00:30:24.216Z,17.2
2022-08-26T00:36:03.737Z,17.2
2022-08-26T00:46:40.283Z,16.9
2022-08-26T00:52:45.635Z,16.8
2022-08-26T00:58:38.385Z,16.6
2022-08-26T01:04:26.231Z,16.5
2022-08-26T01:09:58.021Z,16.4
2022-08-26T01:15:27.484Z,16.3
2022-08-26T01:21:17.428Z,16.3
2022-08-26T01:27:15.629Z,16.2
2022-08-26T01:33:00.511Z,16.1
2022-08-26T01:38:57.844Z,16
2022-08-26T01:44:50.687Z,15.9
2022-08-26T01:50:47.679Z,15.9
2022-08-26T01:57:10.411Z,15.8
2022-08-26T02:02:49.394Z,15.8
2022-08-26T02:08:42.248Z,15.8
2022-08-26T02:14:32.084Z,15.7
2022-08-26T02:20:30.608Z,15.6
2022-08-26T02:26:01.415Z,15.5
2022-08-26T02:31:40.020Z,15.4
2022-08-26T02:37:28.300Z,15.3
2022-08-26T02:43:17.676Z,15.3
2022-08-26T02:49:14.367Z,15.3
2022-08-26T02:54:41.497Z,15.2
2022-08-26T03:00:23.781Z,15.2
2022-08-26T03:06:30.308Z,15.2
2022-08-26T03:12:07.016Z,15.2
2022-08-26T03:18:01.188Z,15.2
2022-08-26T03:23:29.897Z,15.1
2022-08-26T03:29:15.657Z,15.1
2022-08-26T03:35:04.474Z,15.1
2022-08-26T03:40:47.965Z,15.1
2022-08-26T03:46:12.326Z,15.1
2022-08-26T03:52:02.263Z,15.1
2022-08-26T03:57:54.350Z,15.3
2022-08-26T04:03:44.314Z,15.3
2022-08-26T04:09:23.470Z,15.3
2022-08-26T04:15:14.574Z,15.4
2022-08-26T04:20:41.328Z,15.5
2022-08-26T04:26:24.840Z,15.7
2022-08-26T04:32:12.496Z,15.9
2022-08-26T04:38:09.930Z,16.1
2022-08-26T04:43:43.066Z,16.3
2022-08-26T04:49:35.024Z,16.6
2022-08-26T04:55:21.844Z,16.9
2022-08-26T05:01:24.452Z,17.2
2022-08-26T05:07:15.398Z,17.4
2022-08-26T05:12:33.983Z,17.7
2022-08-26T05:18:26.695Z,18
2022-08-26T05:24:11.437Z,18.3
2022-08-26T05:35:26.800Z,19.1
2022-08-26T05:41:06.181Z,19.6
2022-08-26T05:47:01.726Z,20.6
2022-08-26T05:52:47.018Z,21.8
2022-08-26T05:58:38.246Z,22.8
2022-08-26T06:04:28.561Z,23.6
2022-08-26T06:10:45.729Z,24.1
2022-08-26T06:16:44.392Z,25.3
2022-08-26T06:22:30.318Z,26.1
2022-08-26T06:28:31.120Z,27.6
2022-08-26T06:34:18.408Z,34.5
2022-08-26T06:40:08.766Z,38.1
2022-08-26T06:45:54.664Z,38.6
2022-08-26T06:51:39.811Z,38.6
2022-08-26T06:57:21.915Z,38.4
2022-08-26T07:03:20.232Z,40.8
2022-08-26T07:09:13.463Z,45.7
2022-08-26T07:15:04.985Z,45.5
2022-08-26T07:21:17.028Z,40.5
2022-08-26T07:27:05.837Z,40.3
2022-08-26T07:32:57.023Z,40.1
2022-08-26T07:38:52.645Z,40.3
2022-08-26T07:44:38.403Z,40.4
2022-08-26T07:50:49.606Z,41.1
2022-08-26T07:56:33.218Z,41.5
2022-08-26T08:02:30.093Z,42
2022-08-26T08:09:02.772Z,42.5
2022-08-26T08:14:35.341Z,43.5
2022-08-26T08:20:34.663Z,44.8
2022-08-26T08:26:42.204Z,47.3
2022-08-26T08:32:54.640Z,40.4
2022-08-26T08:38:41.828Z,42.8
2022-08-26T08:50:13.786Z,44.2
2022-08-26T08:56:07.747Z,41.4
2022-08-26T09:02:00.352Z,44.1
2022-08-26T09:07:54.343Z,46.6
2022-08-26T09:13:44.943Z,41.6
2022-08-26T09:19:21.124Z,44
2022-08-26T09:25:16.536Z,50.7
2022-08-26T09:31:11.136Z,50
2022-08-26T09:37:04.625Z,49.1
2022-08-26T09:43:00.443Z,45.9
2022-08-26T09:48:58.199Z,46.6
2022-08-26T09:54:47.759Z,44.1
2022-08-26T10:00:31.940Z,42.8
2022-08-26T10:06:21.316Z,44.3
2022-08-26T10:12:06.495Z,46.1
2022-08-26T10:17:58.332Z,45.6
2022-08-26T10:24:12.892Z,45.3
2022-08-26T10:30:13.625Z,51.6
2022-08-26T10:36:08.033Z,47.7
2022-08-26T10:42:30.251Z,46.4
2022-08-26T10:48:22.151Z,45.8
2022-08-26T10:54:26.183Z,48
2022-08-26T11:00:14.680Z,51.6
2022-08-26T11:06:22.384Z,54.1
2022-08-26T11:12:15.142Z,54.9
2022-08-26T11:18:28.899Z,55.6
2022-08-26T11:24:33.781Z,51.6
2022-08-26T11:30:48.668Z,49.1
2022-08-26T11:36:46.072Z,50.1
2022-08-26T11:42:40.723Z,52.5
2022-08-26T11:48:28.985Z,51.3
2022-08-26T11:54:16.258Z,51
2022-08-26T12:00:13.672Z,54.1
2022-08-26T12:05:48.814Z,55.3
2022-08-26T12:11:12.978Z,55.7
2022-08-26T12:16:42.828Z,55.8
2022-08-26T12:22:33.764Z,55.7
2022-08-26T12:28:15.584Z,55.4
2022-08-26T12:34:52.387Z,55.4
2022-08-26T12:40:37.114Z,55.3
2022-08-26T12:45:50.339Z,55
2022-08-26T12:51:41.407Z,55.4
2022-08-26T12:57:02.695Z,55
2022-08-26T13:02:48.222Z,55.2
2022-08-26T13:08:34.263Z,55.3
2022-08-26T13:13:56.926Z,54.6
2022-08-26T13:19:32.432Z,53.5
2022-08-26T13:25:19.728Z,52.8
2022-08-26T13:31:04.785Z,52.5
2022-08-26T13:36:36.268Z,52.8
2022-08-26T13:42:24.879Z,51.7
2022-08-26T13:48:11.528Z,48.6
2022-08-26T13:53:59.613Z,48.2
2022-08-26T13:59:37.705Z,48.5
2022-08-26T14:05:07.426Z,46.8
2022-08-26T14:10:50.441Z,44.9
2022-08-26T14:16:27.274Z,43.8
2022-08-26T14:22:33.750Z,43.3
2022-08-26T14:28:33.690Z,45.9
2022-08-26T14:34:11.121Z,46.4
2022-08-26T14:39:50.780Z,44.8
2022-08-26T14:45:55.076Z,43.1
2022-08-26T14:51:36.104Z,42.1
2022-08-26T14:57:14.297Z,41.8
2022-08-26T15:03:08.124Z,41.6
2022-08-26T15:08:46.929Z,41.7
2022-08-26T15:14:36.180Z,41.6
2022-08-26T15:19:58.588Z,40.9
2022-08-26T15:25:40.997Z,40.1
2022-08-26T15:31:06.273Z,39.1
2022-08-26T15:36:55.262Z,37.9
2022-08-26T15:42:33.122Z,37
2022-08-26T15:48:56.966Z,36.1
2022-08-26T15:54:44.347Z,35.3
2022-08-26T16:00:31.010Z,34.3
2022-08-26T16:06:15.741Z,33.6
2022-08-26T16:12:01.836Z,33.1
2022-08-26T16:17:55.154Z,32.8
2022-08-26T16:23:57.108Z,32.4
2022-08-26T16:29:40.265Z,32
2022-08-26T16:35:30.808Z,31.5
2022-08-26T16:41:13.461Z,30.8
2022-08-26T16:46:58.590Z,30.2
2022-08-26T16:52:36.076Z,29.5
2022-08-26T16:58:21.897Z,28.8
2022-08-26T17:04:00.281Z,28.1
2022-08-26T17:09:40.299Z,27.4
2022-08-26T17:15:35.749Z,26.8
2022-08-26T17:21:23.345Z,26.3
2022-08-26T17:26:53.507Z,25.8
2022-08-26T17:32:17.477Z,25.3
2022-08-26T17:37:49.301Z,24.9
2022-08-26T17:43:12.540Z,24.5
2022-08-26T17:48:59.223Z,24.3
2022-08-26T17:59:48.286Z,23.6
2022-08-26T18:05:29.420Z,23.3
2022-08-26T18:11:09.507Z,22.9
2022-08-26T18:16:39.448Z,22.6
2022-08-26T18:21:57.046Z,22.3
2022-08-26T18:27:50.585Z,22.1
2022-08-26T18:33:31.105Z,21.8
2022-08-26T18:39:16.799Z,21.5
2022-08-26T18:44:23.040Z,21.3
2022-08-26T18:50:04.446Z,20.9
2022-08-26T18:55:44.538Z,20.6
2022-08-26T19:01:31.797Z,20.4
2022-08-26T19:07:07.507Z,20.1
2022-08-26T19:12:51.874Z,19.8
2022-08-26T19:18:34.249Z,19.6
2022-08-26T19:24:28.096Z,19.3
2022-08-26T19:30:08.602Z,19.1
2022-08-26T19:35:35.754Z,18.8
2022-08-26T19:41:19.574Z,18.6
2022-08-26T19:46:53.608Z,18.4
2022-08-26T19:52:37.233Z,18.3
2022-08-26T19:58:18.322Z,18.1
2022-08-26T20:03:49.509Z,17.9
2022-08-26T20:09:51.935Z,17.8
2022-08-26T20:15:34.362Z,17.6
2022-08-26T20:21:40.544Z,17.5
2022-08-26T20:27:24.808Z,17.4
2022-08-26T20:32:53.064Z,17.3
2022-08-26T20:38:20.911Z,17.1
2022-08-26T20:49:31.646Z,16.9
2022-08-26T20:55:01.967Z,16.8
2022-08-26T21:00:24.526Z,16.6
2022-08-26T21:06:14.100Z,16.5
2022-08-26T21:12:01.662Z,16.3
2022-08-26T21:17:45.968Z,16.1
2022-08-26T21:23:29.148Z,16
2022-08-26T21:29:10.890Z,15.9
2022-08-26T21:34:37.246Z,15.8
2022-08-26T21:40:23.444Z,15.6
2022-08-26T21:46:10.891Z,15.6
2022-08-26T21:51:49.414Z,15.4
2022-08-26T21:57:30.249Z,15.4
2022-08-26T22:03:07.827Z,15.3
2022-08-26T22:08:50.680Z,15.3
2022-08-26T22:13:59.536Z,15.2
2022-08-26T22:19:10.357Z,15.1
2022-08-26T22:24:53.611Z,15.1
2022-08-26T22:30:29.306Z,15
2022-08-26T22:36:24.012Z,14.9
2022-08-26T22:42:07.092Z,14.8
2022-08-26T22:47:32.940Z,14.6
2022-08-26T22:53:17.948Z,14.6
2022-08-26T22:59:04.884Z,14.4
2022-08-26T23:04:47.576Z,14.4
2022-08-26T23:10:13.998Z,14.3
2022-08-26T23:15:36.824Z,14.2
2022-08-26T23:21:08.338Z,14.1
2022-08-26T23:26:40.070Z,14
2022-08-26T23:31:45.648Z,14.1
2022-08-26T23:37:13.626Z,14.1
2022-08-26T23:42:52.455Z,14
2022-08-26T23:48:37.132Z,13.9
2022-08-26T23:53:57.937Z,13.8
2022-08-26T23:59:20.912Z,13.7
